Airport View

Enter ICAO identifier to see the current METAR for that AWOS.

KFNL for example

K88M 220943Z AUTO 00000KT 10SM 12/08 A3008

22 Aug 2014 09:50

Frequency: 118.375

Phone: 406-889-3366

Other Area AWOS: KS59 - CWRT - CWGW - CWSW

TAF CYXC 220638Z 2207/2219 VRB03KT P6SM BKN080 TEMPO 2207/2219 P6SM -SHRA FEW020 BKN050 RMK NXT FCST BY 221300Z